Time;durP1;ratioP1;P1;durP2;ratioP2;P2;SDS_P1;SDS_P2;PMS_P1;PMS_P2;Temp;Humidity;BMP_temperature;BMP_pressure;BME280_temperature;BME280_humidity;BME280_pressure;Samples;Min_cycle;Max_cycle;Signal;HPM_P1;HPM_P2
2022/02/17 00:00:39;;;;;;;;;;;10.50;99.90;;;;;;5070345;28;20357;-75
2022/02/17 00:03:05;;;;;;;;;;;10.50;99.90;;;;;;5070188;28;19908;-74
2022/02/17 00:05:30;;;;;;;;;;;10.50;99.90;;;;;;5071511;28;19908;-75
2022/02/17 00:07:57;;;;;;;;;;;10.60;99.90;;;;;;5069475;28;19919;-76
2022/02/17 00:10:25;;;;;;;;;;;10.70;99.90;;;;;;5071282;28;19982;-75
2022/02/17 00:12:51;;;;;;;;;;;10.70;99.90;;;;;;5071257;28;19909;-75
2022/02/17 00:15:17;;;;;;;;;;;10.70;99.90;;;;;;5071000;28;19912;-75
2022/02/17 00:17:42;;;;;;;;;;;10.70;99.90;;;;;;5071366;28;19970;-75
2022/02/17 00:20:08;;;;;;;;;;;10.70;99.90;;;;;;5071334;28;19909;-74
2022/02/17 00:22:34;;;;;;;;;;;10.60;99.90;;;;;;5071154;28;20223;-75
2022/02/17 00:25:00;;;;;;;;;;;10.70;99.90;;;;;;5071086;28;19922;-74
2022/02/17 00:27:25;;;;;;;;;;;10.80;99.90;;;;;;5071272;28;20274;-76
2022/02/17 00:29:51;;;;;;;;;;;10.70;99.90;;;;;;5069517;28;19978;-75
2022/02/17 00:32:16;;;;;;;;;;;10.80;99.90;;;;;;5071082;28;19919;-75
2022/02/17 00:34:42;;;;;;;;;;;10.70;99.90;;;;;;5070707;28;19912;-73
2022/02/17 00:37:08;;;;;;;;;;;10.70;99.90;;;;;;5069425;28;20011;-75
2022/02/17 00:39:34;;;;;;;;;;;10.80;99.90;;;;;;5070949;28;19909;-76
2022/02/17 00:42:00;;;;;;;;;;;10.70;99.90;;;;;;5070833;28;20354;-75
2022/02/17 00:44:25;;;;;;;;;;;10.60;99.90;;;;;;5070837;28;19908;-76
2022/02/17 00:46:51;;;;;;;;;;;10.60;99.90;;;;;;5071042;28;19916;-75
2022/02/17 00:49:16;;;;;;;;;;;10.70;99.90;;;;;;5073114;28;19928;-75
2022/02/17 00:51:42;;;;;;;;;;;10.80;99.90;;;;;;5074902;28;19912;-76
2022/02/17 00:54:08;;;;;;;;;;;10.70;99.90;;;;;;5074951;28;19944;-76
2022/02/17 00:56:33;;;;;;;;;;;10.80;99.90;;;;;;5073769;28;20258;-75
2022/02/17 00:58:59;;;;;;;;;;;10.80;99.90;;;;;;5073979;28;19912;-76
2022/02/17 01:01:25;;;;;;;;;;;10.80;99.90;;;;;;5069258;28;20290;-76
2022/02/17 01:03:50;;;;;;;;;;;10.80;99.90;;;;;;5074382;28;20007;-75
2022/02/17 01:06:16;;;;;;;;;;;10.80;99.90;;;;;;5075276;28;20335;-76
2022/02/17 01:08:41;;;;;;;;;;;10.80;99.90;;;;;;5074589;28;20011;-75
2022/02/17 01:11:07;;;;;;;;;;;10.80;99.90;;;;;;5074692;28;19909;-73
2022/02/17 01:13:32;;;;;;;;;;;10.80;99.90;;;;;;5074333;28;20399;-76
2022/02/17 01:15:58;;;;;;;;;;;10.80;99.90;;;;;;5074558;28;20388;-76
2022/02/17 01:18:24;;;;;;;;;;;10.80;99.90;;;;;;5074622;28;20003;-75
2022/02/17 01:20:50;;;;;;;;;;;10.70;99.90;;;;;;5076886;28;19913;-75
2022/02/17 01:23:15;;;;;;;;;;;10.50;99.90;;;;;;5076517;28;20336;-74
2022/02/17 01:25:42;;;;;;;;;;;10.40;99.90;;;;;;5073850;28;19924;-76
2022/02/17 01:28:07;;;;;;;;;;;10.20;99.90;;;;;;5074287;28;19917;-75
2022/02/17 01:30:33;;;;;;;;;;;10.00;99.90;;;;;;5075205;28;19915;-76
2022/02/17 01:32:58;;;;;;;;;;;9.90;99.90;;;;;;5073852;28;20331;-76
2022/02/17 01:35:24;;;;;;;;;;;9.80;99.90;;;;;;5073903;28;19917;-76
2022/02/17 01:37:49;;;;;;;;;;;9.80;99.90;;;;;;5074198;28;19916;-74
2022/02/17 01:40:15;;;;;;;;;;;9.80;99.90;;;;;;5074178;28;19962;-76
2022/02/17 01:42:40;;;;;;;;;;;9.90;99.90;;;;;;5073986;28;19915;-76
2022/02/17 01:45:07;;;;;;;;;;;10.00;99.90;;;;;;5072535;28;19917;-76
2022/02/17 01:47:33;;;;;;;;;;;10.00;99.90;;;;;;5071192;28;20007;-75
2022/02/17 01:49:59;;;;;;;;;;;9.80;99.90;;;;;;5073834;28;20011;-75
2022/02/17 01:52:24;;;;;;;;;;;9.80;99.90;;;;;;5073784;28;19916;-75
2022/02/17 01:54:50;;;;;;;;;;;9.80;99.90;;;;;;5073694;28;19915;-76
2022/02/17 01:57:16;;;;;;;;;;;9.80;99.90;;;;;;5073884;28;20373;-76
2022/02/17 01:59:43;;;;;;;;;;;9.80;99.90;;;;;;5072776;28;20399;-74
2022/02/17 02:02:08;;;;;;;;;;;9.90;99.90;;;;;;5077020;28;19916;-75
2022/02/17 02:04:34;;;;;;;;;;;9.80;99.90;;;;;;5073790;28;20293;-76
2022/02/17 02:06:59;;;;;;;;;;;9.80;99.90;;;;;;5073576;28;20053;-76
2022/02/17 02:09:25;;;;;;;;;;;9.90;99.90;;;;;;5073521;28;20289;-76
2022/02/17 02:11:51;;;;;;;;;;;9.70;99.90;;;;;;5073799;28;19913;-75
2022/02/17 02:14:17;;;;;;;;;;;9.70;99.90;;;;;;5073385;28;19918;-74
2022/02/17 02:16:44;;;;;;;;;;;9.80;99.90;;;;;;5073447;28;19916;-75
2022/02/17 02:19:10;;;;;;;;;;;9.70;99.90;;;;;;5058793;28;19913;-75
2022/02/17 02:21:35;;;;;;;;;;;9.70;99.90;;;;;;5066797;28;20288;-75
2022/02/17 02:24:01;;;;;;;;;;;9.70;99.90;;;;;;5073177;28;19944;-75
2022/02/17 02:26:27;;;;;;;;;;;9.80;99.90;;;;;;5072819;28;19912;-76
2022/02/17 02:28:53;;;;;;;;;;;9.90;99.90;;;;;;5073054;28;19944;-76
2022/02/17 02:31:19;;;;;;;;;;;9.70;99.90;;;;;;5078335;28;20422;-73
2022/02/17 02:33:44;;;;;;;;;;;9.70;99.90;;;;;;5073291;28;19912;-76
2022/02/17 02:36:10;;;;;;;;;;;9.70;99.90;;;;;;5073216;28;19970;-75
2022/02/17 02:38:36;;;;;;;;;;;9.70;99.90;;;;;;5071825;28;19909;-75
2022/02/17 02:41:01;;;;;;;;;;;9.60;99.90;;;;;;5072941;28;19908;-75
2022/02/17 02:43:27;;;;;;;;;;;9.70;99.90;;;;;;5072719;28;20395;-75
2022/02/17 02:45:52;;;;;;;;;;;9.70;99.90;;;;;;5069950;28;19981;-75
2022/02/17 02:48:19;;;;;;;;;;;9.60;99.90;;;;;;5072157;28;19916;-75
2022/02/17 02:50:44;;;;;;;;;;;9.60;99.90;;;;;;5072909;28;19915;-76
2022/02/17 02:53:14;;;;;;;;;;;9.60;99.90;;;;;;5072341;28;19909;-76
2022/02/17 02:55:44;;;;;;;;;;;9.60;99.90;;;;;;5072795;28;20332;-75
2022/02/17 02:58:10;;;;;;;;;;;9.60;99.90;;;;;;5072589;28;20406;-73
2022/02/17 03:00:35;;;;;;;;;;;9.60;99.90;;;;;;5069873;28;19916;-74
2022/02/17 03:03:01;;;;;;;;;;;9.60;99.90;;;;;;5072929;28;19912;-76
2022/02/17 03:05:26;;;;;;;;;;;9.60;99.90;;;;;;5072381;28;19913;-76
2022/02/17 03:07:54;;;;;;;;;;;9.60;99.90;;;;;;5072259;28;19916;-75
2022/02/17 03:10:20;;;;;;;;;;;9.60;99.90;;;;;;5071097;28;20305;-75
2022/02/17 03:12:46;;;;;;;;;;;9.60;99.90;;;;;;5071998;28;19908;-74
2022/02/17 03:15:11;;;;;;;;;;;9.60;99.90;;;;;;5071962;28;19909;-75
2022/02/17 03:17:37;;;;;;;;;;;9.60;99.90;;;;;;5072237;28;20508;-75
2022/02/17 03:20:07;;;;;;;;;;;9.70;99.90;;;;;;5072436;28;19912;-75
2022/02/17 03:22:33;;;;;;;;;;;9.70;99.90;;;;;;5072312;28;20297;-76
2022/02/17 03:24:59;;;;;;;;;;;9.60;99.90;;;;;;5070680;28;19935;-75
2022/02/17 03:27:24;;;;;;;;;;;9.50;99.90;;;;;;5071042;28;20361;-74
2022/02/17 03:29:50;;;;;;;;;;;9.60;99.90;;;;;;5066934;28;19913;-75
2022/02/17 03:32:15;;;;;;;;;;;9.70;99.90;;;;;;5070278;28;20277;-76
2022/02/17 03:34:41;;;;;;;;;;;9.70;99.90;;;;;;5071735;28;20003;-75
2022/02/17 03:37:06;;;;;;;;;;;9.70;99.90;;;;;;5071859;28;19913;-76
2022/02/17 03:39:33;;;;;;;;;;;9.60;99.90;;;;;;5071891;28;19908;-76
2022/02/17 03:41:58;;;;;;;;;;;9.60;99.90;;;;;;5071673;28;19908;-76
2022/02/17 03:44:24;;;;;;;;;;;9.50;99.90;;;;;;5071387;28;20369;-75
2022/02/17 03:46:49;;;;;;;;;;;9.60;99.90;;;;;;5071537;28;19916;-76
2022/02/17 03:49:15;;;;;;;;;;;9.70;99.90;;;;;;5070306;28;19913;-76
2022/02/17 03:51:40;;;;;;;;;;;9.70;99.90;;;;;;5071677;28;19908;-75
2022/02/17 03:54:06;;;;;;;;;;;9.60;99.90;;;;;;5071411;28;20408;-75
2022/02/17 03:56:31;;;;;;;;;;;9.60;99.90;;;;;;5071551;28;20354;-76
2022/02/17 03:59:08;;;;;;;;;;;9.60;99.90;;;;;;5071335;28;19991;-74
2022/02/17 04:01:34;;;;;;;;;;;9.60;99.90;;;;;;5066821;28;19908;-74
2022/02/17 04:04:01;;;;;;;;;;;9.60;99.90;;;;;;5071139;28;19909;-75
2022/02/17 04:06:27;;;;;;;;;;;9.70;99.90;;;;;;5071352;28;20293;-74
2022/02/17 04:08:52;;;;;;;;;;;9.70;99.90;;;;;;5071346;28;19913;-75
2022/02/17 04:11:18;;;;;;;;;;;9.70;99.90;;;;;;5071235;28;19958;-76
2022/02/17 04:13:44;;;;;;;;;;;9.70;99.90;;;;;;5071033;28;19912;-76
2022/02/17 04:16:09;;;;;;;;;;;9.70;99.90;;;;;;5071069;28;19923;-74
2022/02/17 04:18:35;;;;;;;;;;;9.80;99.90;;;;;;5071213;28;19953;-75
2022/02/17 04:21:00;;;;;;;;;;;9.80;99.90;;;;;;5071210;28;19936;-76
2022/02/17 04:23:26;;;;;;;;;;;9.90;99.90;;;;;;5070183;28;20343;-75
2022/02/17 04:25:51;;;;;;;;;;;9.80;99.90;;;;;;5071180;28;20419;-74
2022/02/17 04:28:17;;;;;;;;;;;9.90;99.90;;;;;;5070882;28;19922;-75
2022/02/17 04:30:42;;;;;;;;;;;9.90;99.90;;;;;;5067866;28;20007;-76
2022/02/17 04:33:08;;;;;;;;;;;9.90;99.90;;;;;;5069171;28;20420;-75
2022/02/17 04:35:33;;;;;;;;;;;9.90;99.90;;;;;;5071160;28;19946;-76
2022/02/17 04:37:59;;;;;;;;;;;9.70;99.90;;;;;;5071067;28;19909;-75
2022/02/17 04:42:18;;;;;;;;;;;9.70;99.90;;;;;;5071051;28;19975;-75
2022/02/17 04:43:10;;;;;;;;;;;9.70;99.90;;;;;;5070379;28;20305;-75
2022/02/17 04:45:37;;;;;;;;;;;9.80;99.90;;;;;;5070994;28;20408;-75
2022/02/17 04:48:02;;;;;;;;;;;9.80;99.90;;;;;;5070755;28;19912;-74
2022/02/17 04:50:28;;;;;;;;;;;9.80;99.90;;;;;;5069809;28;20003;-75
2022/02/17 04:52:53;;;;;;;;;;;9.70;99.90;;;;;;5070900;28;19908;-76
2022/02/17 04:55:19;;;;;;;;;;;9.70;99.90;;;;;;5070494;28;19962;-76
2022/02/17 04:57:44;;;;;;;;;;;9.60;99.90;;;;;;5069442;28;20019;-76
2022/02/17 05:00:12;;;;;;;;;;;9.60;99.90;;;;;;5071413;28;19917;-76
2022/02/17 05:02:38;;;;;;;;;;;9.40;99.90;;;;;;5070265;28;19909;-76
2022/02/17 05:05:04;;;;;;;;;;;9.50;99.90;;;;;;5070595;28;19961;-76
2022/02/17 05:07:30;;;;;;;;;;;9.80;99.90;;;;;;5070737;28;20007;-76
2022/02/17 05:09:55;;;;;;;;;;;9.80;99.90;;;;;;5070618;28;20007;-76
2022/02/17 05:12:21;;;;;;;;;;;9.90;99.90;;;;;;5069423;28;20326;-76
2022/02/17 05:14:46;;;;;;;;;;;10.00;99.90;;;;;;5070504;28;20407;-76
2022/02/17 05:17:12;;;;;;;;;;;9.80;99.90;;;;;;5070651;28;19917;-76
2022/02/17 05:19:38;;;;;;;;;;;9.70;99.90;;;;;;5069365;28;19953;-75
2022/02/17 05:22:03;;;;;;;;;;;9.70;99.90;;;;;;5070518;28;19917;-75
2022/02/17 05:24:29;;;;;;;;;;;9.80;99.90;;;;;;5070169;28;19952;-75
2022/02/17 05:26:55;;;;;;;;;;;10.00;99.90;;;;;;5070415;28;19909;-75
2022/02/17 05:29:21;;;;;;;;;;;10.00;99.90;;;;;;5069574;28;19983;-75
2022/02/17 05:31:47;;;;;;;;;;;10.00;99.90;;;;;;5070040;28;19942;-76
2022/02/17 05:34:12;;;;;;;;;;;10.20;99.90;;;;;;5071017;28;19909;-76
2022/02/17 05:36:38;;;;;;;;;;;10.10;99.90;;;;;;5074503;28;19913;-76
2022/02/17 05:39:04;;;;;;;;;;;10.20;99.90;;;;;;5074742;28;19987;-75
2022/02/17 05:41:30;;;;;;;;;;;10.20;99.90;;;;;;5074529;28;20007;-74
2022/02/17 05:43:56;;;;;;;;;;;10.10;99.90;;;;;;5073059;28;20014;-74
2022/02/17 05:46:21;;;;;;;;;;;10.10;99.90;;;;;;5074977;28;20372;-74
2022/02/17 05:48:47;;;;;;;;;;;10.00;99.90;;;;;;5074892;28;20016;-77
2022/02/17 05:51:17;;;;;;;;;;;9.80;99.90;;;;;;5074087;28;19912;-77
2022/02/17 05:53:43;;;;;;;;;;;9.60;99.90;;;;;;5075471;28;19908;-77
2022/02/17 05:56:09;;;;;;;;;;;9.60;99.90;;;;;;5076525;28;19908;-76
2022/02/17 05:58:34;;;;;;;;;;;9.60;99.90;;;;;;5078226;28;20380;-76
2022/02/17 06:01:00;;;;;;;;;;;9.50;99.90;;;;;;5070419;28;20278;-75
2022/02/17 06:03:26;;;;;;;;;;;9.50;99.90;;;;;;5068512;28;19915;-75
2022/02/17 06:05:51;;;;;;;;;;;9.50;99.90;;;;;;5074009;28;19916;-76
2022/02/17 06:08:17;;;;;;;;;;;9.50;99.90;;;;;;5073657;28;19923;-76
2022/02/17 06:10:43;;;;;;;;;;;9.50;99.90;;;;;;5073824;28;19912;-75
2022/02/17 06:13:08;;;;;;;;;;;9.50;99.90;;;;;;5073332;28;19908;-76
2022/02/17 06:15:36;;;;;;;;;;;9.50;99.90;;;;;;5073607;28;20270;-74
2022/02/17 06:18:02;;;;;;;;;;;9.40;99.90;;;;;;5074977;28;19915;-76
2022/02/17 06:20:27;;;;;;;;;;;9.40;99.90;;;;;;5074156;28;20007;-76
2022/02/17 06:22:53;;;;;;;;;;;9.40;99.90;;;;;;5073832;28;19943;-75
2022/02/17 06:25:19;;;;;;;;;;;9.40;99.90;;;;;;5074118;28;19914;-74
2022/02/17 06:27:45;;;;;;;;;;;9.40;99.90;;;;;;5073767;28;19962;-76
2022/02/17 06:30:11;;;;;;;;;;;9.40;99.90;;;;;;5068149;28;19908;-76
2022/02/17 06:32:43;;;;;;;;;;;9.30;99.90;;;;;;5073381;28;20179;-76
2022/02/17 06:35:09;;;;;;;;;;;9.30;99.90;;;;;;5070124;28;19915;-75
2022/02/17 06:37:35;;;;;;;;;;;9.30;99.90;;;;;;5073615;28;19908;-74
2022/02/17 06:40:01;;;;;;;;;;;9.20;99.90;;;;;;5073595;28;19954;-74
2022/02/17 06:42:26;;;;;;;;;;;9.20;99.90;;;;;;5073375;28;20015;-76
2022/02/17 06:44:52;;;;;;;;;;;9.10;99.90;;;;;;5073424;28;20365;-76
2022/02/17 06:47:17;;;;;;;;;;;9.10;99.90;;;;;;5072923;28;19913;-76
2022/02/17 06:49:43;;;;;;;;;;;9.00;99.90;;;;;;5069637;28;19974;-74
2022/02/17 06:52:08;;;;;;;;;;;9.00;99.90;;;;;;5073188;28;20015;-76
2022/02/17 06:54:34;;;;;;;;;;;8.90;99.90;;;;;;5073147;28;19909;-75
2022/02/17 06:56:59;;;;;;;;;;;8.80;99.90;;;;;;5073319;28;19912;-75
2022/02/17 06:59:25;;;;;;;;;;;8.70;99.90;;;;;;5073538;28;20292;-75
2022/02/17 07:01:50;;;;;;;;;;;8.70;99.90;;;;;;5072664;28;19913;-76
2022/02/17 07:04:16;;;;;;;;;;;8.70;99.90;;;;;;5071639;28;19909;-75
2022/02/17 07:06:42;;;;;;;;;;;8.60;99.90;;;;;;5072676;28;20376;-74
2022/02/17 07:09:08;;;;;;;;;;;8.60;99.90;;;;;;5071503;28;20254;-75
2022/02/17 07:11:33;;;;;;;;;;;8.60;99.90;;;;;;5072677;28;19908;-74
2022/02/17 07:13:59;;;;;;;;;;;8.60;99.90;;;;;;5072423;28;19953;-75
2022/02/17 07:16:25;;;;;;;;;;;8.60;99.90;;;;;;5072973;28;20006;-75
2022/02/17 07:18:50;;;;;;;;;;;8.60;99.90;;;;;;5072018;28;19908;-73
2022/02/17 07:21:16;;;;;;;;;;;8.50;99.90;;;;;;5068874;28;19916;-74
2022/02/17 07:23:41;;;;;;;;;;;8.50;99.90;;;;;;5072434;28;19909;-75
2022/02/17 07:26:07;;;;;;;;;;;8.70;99.90;;;;;;5072506;28;19912;-75
2022/02/17 07:28:34;;;;;;;;;;;8.70;99.90;;;;;;5072503;28;19912;-75
2022/02/17 07:30:59;;;;;;;;;;;8.90;99.90;;;;;;5068381;28;19916;-75
2022/02/17 07:33:25;;;;;;;;;;;9.30;99.90;;;;;;5071811;28;19909;-75
2022/02/17 07:35:50;;;;;;;;;;;9.30;99.90;;;;;;5070219;28;19970;-75
2022/02/17 07:38:16;;;;;;;;;;;9.30;99.90;;;;;;5072879;28;19909;-75
2022/02/17 07:40:42;;;;;;;;;;;9.30;99.90;;;;;;5074653;28;19915;-76
2022/02/17 07:43:09;;;;;;;;;;;9.40;99.90;;;;;;5070344;28;20523;-75
2022/02/17 07:45:35;;;;;;;;;;;9.50;99.90;;;;;;5072728;28;19958;-74
2022/02/17 07:48:00;;;;;;;;;;;9.40;99.90;;;;;;5072804;28;19950;-73
2022/02/17 07:50:27;;;;;;;;;;;9.40;99.90;;;;;;5073723;28;20358;-74
2022/02/17 07:52:53;;;;;;;;;;;9.30;99.90;;;;;;5075741;28;19908;-73
2022/02/17 07:55:19;;;;;;;;;;;9.30;99.90;;;;;;5071616;28;19931;-74
2022/02/17 07:57:45;;;;;;;;;;;9.40;99.90;;;;;;5068516;28;20372;-74
2022/02/17 08:00:13;;;;;;;;;;;9.30;99.90;;;;;;5065907;28;19915;-75
2022/02/17 08:02:39;;;;;;;;;;;9.30;99.90;;;;;;5071068;28;19908;-75
2022/02/17 08:05:05;;;;;;;;;;;9.30;99.90;;;;;;5071170;28;20010;-75
2022/02/17 08:07:31;;;;;;;;;;;9.30;99.90;;;;;;5070862;28;20419;-74
2022/02/17 08:09:57;;;;;;;;;;;9.40;99.90;;;;;;5070139;28;19932;-75
2022/02/17 08:12:22;;;;;;;;;;;9.50;99.90;;;;;;5072103;28;19908;-76
2022/02/17 08:14:48;;;;;;;;;;;9.50;99.90;;;;;;5068102;28;20029;-75
2022/02/17 08:17:13;;;;;;;;;;;9.60;99.90;;;;;;5069816;28;19960;-75
2022/02/17 08:19:39;;;;;;;;;;;9.60;99.90;;;;;;5070458;28;19913;-74
2022/02/17 08:22:04;;;;;;;;;;;9.70;99.90;;;;;;5071159;28;19959;-76
2022/02/17 08:24:30;;;;;;;;;;;9.80;99.90;;;;;;5071798;28;19934;-75
2022/02/17 08:26:59;;;;;;;;;;;9.90;99.90;;;;;;5071136;28;19915;-75
2022/02/17 08:29:26;;;;;;;;;;;10.10;99.90;;;;;;5071466;28;20376;-76
2022/02/17 08:31:52;;;;;;;;;;;10.20;99.90;;;;;;5065192;28;19965;-75
2022/02/17 08:34:18;;;;;;;;;;;10.10;99.90;;;;;;5064197;28;19920;-75
2022/02/17 08:36:43;;;;;;;;;;;10.10;99.90;;;;;;5064402;28;19920;-75
2022/02/17 08:39:09;;;;;;;;;;;10.00;99.90;;;;;;5070241;28;19920;-76
2022/02/17 08:41:35;;;;;;;;;;;10.30;99.90;;;;;;5071526;28;19917;-76
2022/02/17 08:44:01;;;;;;;;;;;11.00;99.90;;;;;;5064541;28;19997;-75
2022/02/17 08:46:27;;;;;;;;;;;11.70;99.90;;;;;;5067903;28;19975;-75
2022/02/17 08:48:52;;;;;;;;;;;12.70;99.90;;;;;;5071729;28;19916;-76
2022/02/17 08:51:20;;;;;;;;;;;12.70;99.90;;;;;;5072097;28;19909;-76
2022/02/17 08:53:46;;;;;;;;;;;12.00;99.90;;;;;;5065716;28;19915;-75
2022/02/17 08:56:11;;;;;;;;;;;12.40;99.40;;;;;;5071695;28;20000;-76
2022/02/17 08:58:37;;;;;;;;;;;13.00;99.40;;;;;;5059466;28;20285;-77
2022/02/17 09:01:02;;;;;;;;;;;14.50;96.70;;;;;;5072945;28;19908;-74
2022/02/17 09:03:28;;;;;;;;;;;14.60;94.70;;;;;;5072587;28;19913;-76
2022/02/17 09:05:53;;;;;;;;;;;15.00;94.30;;;;;;5072295;28;19909;-76
2022/02/17 09:08:19;;;;;;;;;;;13.70;94.70;;;;;;5069404;28;19955;-76
2022/02/17 09:10:44;;;;;;;;;;;13.20;94.40;;;;;;5073387;28;19962;-75
2022/02/17 09:13:11;;;;;;;;;;;13.80;94.00;;;;;;5076345;28;20362;-76
2022/02/17 09:15:36;;;;;;;;;;;14.40;93.10;;;;;;5076602;28;19912;-77
2022/02/17 09:18:02;;;;;;;;;;;13.70;93.00;;;;;;5072256;28;19912;-76
2022/02/17 09:20:29;;;;;;;;;;;14.30;91.40;;;;;;5075948;28;19908;-77
2022/02/17 09:22:54;;;;;;;;;;;14.80;91.80;;;;;;5074625;28;19909;-77
2022/02/17 09:25:20;;;;;;;;;;;14.20;91.00;;;;;;5072885;28;19967;-76
2022/02/17 09:27:46;;;;;;;;;;;14.50;91.30;;;;;;5075893;28;20293;-76
2022/02/17 09:30:11;;;;;;;;;;;15.00;91.00;;;;;;5075739;28;19916;-76
2022/02/17 09:32:37;;;;;;;;;;;15.20;89.40;;;;;;5074107;28;19916;-76
2022/02/17 09:35:03;;;;;;;;;;;13.60;91.20;;;;;;5073116;28;19919;-77
2022/02/17 09:37:29;;;;;;;;;;;11.90;93.40;;;;;;5073215;28;19915;-75
2022/02/17 09:39:55;;;;;;;;;;;13.80;92.90;;;;;;5073986;28;20003;-75
2022/02/17 09:42:20;;;;;;;;;;;13.10;92.40;;;;;;5071483;28;19947;-76
2022/02/17 09:44:46;;;;;;;;;;;14.90;90.00;;;;;;5064439;28;19909;-77
2022/02/17 09:47:12;;;;;;;;;;;14.60;85.50;;;;;;5076513;28;19909;-76
2022/02/17 09:49:41;;;;;;;;;;;13.10;86.90;;;;;;5073706;28;19966;-75
2022/02/17 09:52:08;;;;;;;;;;;12.20;90.60;;;;;;5074289;28;19936;-76
2022/02/17 09:54:35;;;;;;;;;;;11.00;92.40;;;;;;5074676;28;19908;-75
2022/02/17 09:57:01;;;;;;;;;;;10.60;94.00;;;;;;5081137;28;20376;-76
2022/02/17 09:59:26;;;;;;;;;;;11.30;94.50;;;;;;5091273;28;19920;-74
2022/02/17 10:01:53;;;;;;;;;;;11.10;94.10;;;;;;5089265;28;19897;-74
2022/02/17 10:04:21;;;;;;;;;;;13.00;92.60;;;;;;5092957;28;19921;-75
2022/02/17 10:06:48;;;;;;;;;;;12.10;92.90;;;;;;5081701;28;20414;-76
2022/02/17 10:09:14;;;;;;;;;;;12.00;93.80;;;;;;5070016;28;19987;-74
2022/02/17 10:11:41;;;;;;;;;;;12.80;91.50;;;;;;5074118;28;19954;-75
2022/02/17 10:14:08;;;;;;;;;;;11.60;91.70;;;;;;5072784;28;19908;-76
2022/02/17 10:16:51;;;;;;;;;;;11.60;91.80;;;;;;5074102;28;19923;-76
2022/02/17 10:19:17;;;;;;;;;;;12.10;91.30;;;;;;5074283;28;19916;-76
2022/02/17 10:21:44;;;;;;;;;;;11.90;91.00;;;;;;5071151;28;21564;-75
2022/02/17 10:24:28;;;;;;;;;;;14.80;87.20;;;;;;5074220;28;19912;-76
2022/02/17 10:27:01;;;;;;;;;;;14.10;87.00;;;;;;5075130;28;20007;-76
2022/02/17 10:29:26;;;;;;;;;;;12.70;89.40;;;;;;5074204;28;19913;-75
2022/02/17 10:32:01;;;;;;;;;;;12.10;89.60;;;;;;5070474;28;19912;-76
2022/02/17 10:34:26;;;;;;;;;;;12.50;89.90;;;;;;5075416;28;19959;-76
2022/02/17 10:36:52;;;;;;;;;;;13.10;88.60;;;;;;5071307;28;19909;-77
2022/02/17 10:39:22;;;;;;;;;;;14.40;83.00;;;;;;5070297;28;19980;-76
2022/02/17 10:41:55;;;;;;;;;;;14.20;86.20;;;;;;5073491;28;19909;-77
2022/02/17 10:44:28;;;;;;;;;;;15.50;82.70;;;;;;5068407;28;19908;-76
2022/02/17 10:46:53;;;;;;;;;;;17.10;77.50;;;;;;5073527;28;19915;-76
2022/02/17 10:49:20;;;;;;;;;;;18.30;75.80;;;;;;5076886;28;19912;-75
2022/02/17 10:51:47;;;;;;;;;;;16.70;75.50;;;;;;5073326;28;19908;-77
2022/02/17 10:54:17;;;;;;;;;;;16.50;75.50;;;;;;5073358;28;19910;-76
2022/02/17 10:56:43;;;;;;;;;;;15.00;79.70;;;;;;5072642;28;20441;-75
2022/02/17 11:01:54;;;;;;;;;;;14.30;81.10;;;;;;5073728;28;19935;-76
2022/02/17 11:04:20;;;;;;;;;;;14.80;77.70;;;;;;5076102;28;19909;-76
2022/02/17 11:06:46;;;;;;;;;;;16.10;73.10;;;;;;5071964;28;20291;-75
2022/02/17 11:09:11;;;;;;;;;;;15.40;71.80;;;;;;5071688;28;19916;-75
2022/02/17 11:11:37;;;;;;;;;;;14.50;72.50;;;;;;5072681;28;19919;-76
2022/02/17 11:14:03;;;;;;;;;;;14.30;74.70;;;;;;5070342;28;19913;-77
2022/02/17 11:16:28;;;;;;;;;;;14.00;73.70;;;;;;5071825;28;19917;-77
2022/02/17 11:18:58;;;;;;;;;;;14.00;73.00;;;;;;5073403;28;20281;-76
2022/02/17 11:21:24;;;;;;;;;;;14.20;74.00;;;;;;5071371;28;19908;-75
2022/02/17 11:23:56;;;;;;;;;;;13.70;74.40;;;;;;5072814;28;19913;-77
2022/02/17 11:26:25;;;;;;;;;;;14.10;73.50;;;;;;5072619;28;19908;-77
2022/02/17 11:28:51;;;;;;;;;;;13.50;73.90;;;;;;5071278;28;19916;-77
2022/02/17 11:31:16;;;;;;;;;;;13.70;73.20;;;;;;5072438;28;20031;-77
2022/02/17 11:33:52;;;;;;;;;;;13.40;73.60;;;;;;5073052;28;19908;-75
2022/02/17 11:36:25;;;;;;;;;;;14.10;72.80;;;;;;5073232;28;19913;-75
2022/02/17 11:39:17;;;;;;;;;;;14.10;70.40;;;;;;5071185;28;19947;-77
2022/02/17 11:41:44;;;;;;;;;;;13.50;72.70;;;;;;5067503;28;19970;-76
2022/02/17 11:44:21;;;;;;;;;;;12.80;75.80;;;;;;5068784;28;20269;-77
2022/02/17 11:46:50;;;;;;;;;;;13.00;75.20;;;;;;5072298;28;20293;-76
2022/02/17 11:49:31;;;;;;;;;;;12.20;77.00;;;;;;5071513;28;19916;-76
2022/02/17 11:52:15;;;;;;;;;;;11.30;79.90;;;;;;5070513;28;19909;-75
2022/02/17 11:54:59;;;;;;;;;;;11.00;80.90;;;;;;5068886;28;20365;-75
2022/02/17 11:57:32;;;;;;;;;;;11.00;81.40;;;;;;5067774;28;20014;-75
2022/02/17 12:00:15;;;;;;;;;;;11.10;83.40;;;;;;5072175;28;19923;-76
2022/02/17 12:02:42;;;;;;;;;;;11.10;83.30;;;;;;5071981;28;20003;-76
2022/02/17 12:05:14;;;;;;;;;;;10.80;83.80;;;;;;5071498;28;19912;-76
2022/02/17 12:07:41;;;;;;;;;;;10.80;83.90;;;;;;5066836;28;19917;-76
2022/02/17 12:10:42;;;;;;;;;;;10.80;84.60;;;;;;5070744;28;20602;-76
2022/02/17 12:13:10;;;;;;;;;;;11.00;85.00;;;;;;5006921;28;19910;-76
2022/02/17 12:15:35;;;;;;;;;;;11.30;83.80;;;;;;5060237;28;19919;-76
2022/02/17 12:18:01;;;;;;;;;;;11.60;85.10;;;;;;5068486;28;19909;-74
2022/02/17 12:20:28;;;;;;;;;;;11.90;84.40;;;;;;5071190;28;19939;-76
2022/02/17 12:22:58;;;;;;;;;;;12.00;83.60;;;;;;5071913;28;20399;-76
2022/02/17 12:25:25;;;;;;;;;;;11.70;84.30;;;;;;5071763;28;19954;-75
2022/02/17 12:27:52;;;;;;;;;;;11.40;84.40;;;;;;5065929;28;19913;-76
2022/02/17 12:30:21;;;;;;;;;;;11.20;84.90;;;;;;5071639;28;19921;-76
2022/02/17 12:32:47;;;;;;;;;;;11.30;84.80;;;;;;5073213;28;19904;-75
2022/02/17 12:35:23;;;;;;;;;;;11.40;84.50;;;;;;5077059;28;19961;-75
2022/02/17 12:37:59;;;;;;;;;;;11.60;82.90;;;;;;5073653;28;19921;-76
2022/02/17 12:40:29;;;;;;;;;;;11.30;83.40;;;;;;5072268;28;19916;-77
2022/02/17 12:42:54;;;;;;;;;;;11.60;83.80;;;;;;5071001;28;20377;-77
2022/02/17 12:45:32;;;;;;;;;;;11.70;83.30;;;;;;5064355;28;19909;-76
2022/02/17 12:47:59;;;;;;;;;;;11.70;83.60;;;;;;5067836;28;19916;-75
2022/02/17 12:50:24;;;;;;;;;;;11.10;83.70;;;;;;5058655;28;19955;-75
2022/02/17 12:52:51;;;;;;;;;;;11.00;84.90;;;;;;5064882;28;19909;-76
2022/02/17 12:55:17;;;;;;;;;;;10.80;84.80;;;;;;5065389;28;19909;-76
2022/02/17 12:57:51;;;;;;;;;;;10.40;85.30;;;;;;5072296;28;19930;-75
2022/02/17 13:00:17;;;;;;;;;;;10.30;85.50;;;;;;5065978;28;19916;-76
2022/02/17 13:02:42;;;;;;;;;;;10.30;85.60;;;;;;5075861;28;19908;-76
2022/02/17 13:05:08;;;;;;;;;;;10.50;85.80;;;;;;5071634;28;20274;-74
2022/02/17 13:07:35;;;;;;;;;;;10.80;84.90;;;;;;5068549;28;20008;-76
2022/02/17 13:10:01;;;;;;;;;;;11.30;85.30;;;;;;5074385;28;20395;-75
2022/02/17 13:12:27;;;;;;;;;;;11.40;84.60;;;;;;5071168;28;19919;-76
2022/02/17 13:14:52;;;;;;;;;;;11.50;84.60;;;;;;5070576;28;20014;-75
2022/02/17 13:17:23;;;;;;;;;;;11.20;82.20;;;;;;5065729;28;19952;-76
2022/02/17 13:19:49;;;;;;;;;;;11.10;83.30;;;;;;5071870;28;19908;-76
2022/02/17 13:22:16;;;;;;;;;;;10.70;83.50;;;;;;5071903;28;19908;-75
2022/02/17 13:24:42;;;;;;;;;;;10.60;83.60;;;;;;5071522;28;20270;-76
2022/02/17 13:27:09;;;;;;;;;;;10.50;84.10;;;;;;5071427;28;20003;-76
2022/02/17 13:29:55;;;;;;;;;;;10.70;85.40;;;;;;5071960;28;20357;-75
2022/02/17 13:32:21;;;;;;;;;;;10.90;85.10;;;;;;5067778;28;19913;-76
2022/02/17 13:34:46;;;;;;;;;;;11.00;83.90;;;;;;5060236;28;19916;-77
2022/02/17 13:37:13;;;;;;;;;;;11.10;84.50;;;;;;5071427;28;19908;-76
2022/02/17 13:39:39;;;;;;;;;;;11.00;84.60;;;;;;5066482;28;19916;-77
2022/02/17 13:42:04;;;;;;;;;;;10.80;84.60;;;;;;5070862;28;19909;-76
2022/02/17 13:44:34;;;;;;;;;;;11.00;85.10;;;;;;5067231;28;19912;-75
2022/02/17 13:47:00;;;;;;;;;;;11.10;81.60;;;;;;5074156;28;19915;-76
2022/02/17 13:49:26;;;;;;;;;;;11.10;81.00;;;;;;5070698;28;19913;-75
2022/02/17 13:51:51;;;;;;;;;;;11.20;80.50;;;;;;5071114;28;20368;-75
2022/02/17 13:54:18;;;;;;;;;;;11.30;81.20;;;;;;5065287;28;19917;-76
2022/02/17 13:56:43;;;;;;;;;;;11.20;80.90;;;;;;5070888;28;20357;-74
2022/02/17 13:59:09;;;;;;;;;;;11.10;80.70;;;;;;5074245;28;19956;-76
2022/02/17 14:01:45;;;;;;;;;;;11.00;82.30;;;;;;5075033;28;19970;-76
2022/02/17 14:04:13;;;;;;;;;;;11.10;82.40;;;;;;5068387;28;19962;-76
2022/02/17 14:06:38;;;;;;;;;;;11.10;82.00;;;;;;5073186;28;20258;-76
2022/02/17 14:09:03;;;;;;;;;;;11.00;81.20;;;;;;5072907;28;19916;-74
2022/02/17 14:11:29;;;;;;;;;;;10.80;81.20;;;;;;5068350;28;19967;-76
2022/02/17 14:13:54;;;;;;;;;;;10.80;81.60;;;;;;5070983;28;19908;-76
2022/02/17 14:16:20;;;;;;;;;;;10.80;82.30;;;;;;5073939;28;19917;-75
2022/02/17 14:18:46;;;;;;;;;;;11.00;82.80;;;;;;5073437;28;20250;-75
2022/02/17 14:21:11;;;;;;;;;;;11.00;82.50;;;;;;5073802;28;19919;-76
2022/02/17 14:23:37;;;;;;;;;;;10.90;82.50;;;;;;5075139;28;20007;-76